Time;durP1;ratioP1;P1;durP2;ratioP2;P2;SDS_P1;SDS_P2;PMS_P1;PMS_P2;Temp;Humidity;BMP_temperature;BMP_pressure;BME280_temperature;BME280_humidity;BME280_pressure;Samples;Min_cycle;Max_cycle;Signal;HPM_P1;HPM_P2
2023/08/03 00:02:09;;;;;;;2.92;1.98;;;18.80;1.00;;;;;;10016919;29;20227;-77
2023/08/03 00:07:32;;;;;;;3.33;1.58;;;18.80;1.00;;;;;;9973028;29;20545;-76
2023/08/03 00:12:53;;;;;;;3.55;1.88;;;18.80;1.00;;;;;;9968658;29;20207;-78
2023/08/03 00:18:14;;;;;;;8.50;2.42;;;18.80;1.00;;;;;;9966572;29;20540;-76
2023/08/03 00:23:35;;;;;;;2.33;1.60;;;18.70;66.80;;;;;;9971190;29;20254;-77
2023/08/03 00:28:56;;;;;;;2.20;1.60;;;18.70;99.90;;;;;;10042805;29;20198;-77
2023/08/03 00:34:17;;;;;;;3.50;2.00;;;18.60;99.90;;;;;;10035577;29;20291;-77
2023/08/03 00:39:39;;;;;;;5.15;1.77;;;18.60;99.90;;;;;;9978817;29;20384;-77
2023/08/03 00:45:03;;;;;;;4.47;2.22;;;18.70;99.90;;;;;;9982041;29;20608;-75
2023/08/03 00:50:25;;;;;;;3.85;2.03;;;18.60;99.90;;;;;;10003465;29;20269;-76
2023/08/03 00:55:47;;;;;;;5.72;1.98;;;18.60;99.90;;;;;;9968589;29;20269;-76
2023/08/03 01:01:08;;;;;;;3.35;1.92;;;18.60;99.90;;;;;;9999657;29;20387;-76
2023/08/03 01:06:29;;;;;;;4.70;2.03;;;18.60;99.90;;;;;;9991803;29;20498;-78
2023/08/03 01:11:50;;;;;;;4.07;2.00;;;18.60;1.00;;;;;;9953088;29;20204;-78
2023/08/03 01:17:12;;;;;;;3.50;2.10;;;18.60;1.00;;;;;;9964039;29;20521;-77
2023/08/03 01:22:51;;;;;;;3.17;1.65;;;18.70;1.00;;;;;;9966201;29;20266;-78
2023/08/03 01:28:12;;;;;;;3.60;2.03;;;18.70;1.00;;;;;;10035605;29;20445;-78
2023/08/03 01:33:34;;;;;;;2.78;1.40;;;18.70;1.00;;;;;;10038401;29;20226;-77
2023/08/03 01:39:04;;;;;;;3.03;1.70;;;18.70;1.00;;;;;;10043477;29;20243;-78
2023/08/03 01:44:28;;;;;;;5.20;2.33;;;18.70;1.00;;;;;;10031185;29;20540;-78
2023/08/03 01:49:49;;;;;;;2.17;1.63;;;18.60;1.00;;;;;;9977252;29;20204;-76
2023/08/03 01:55:11;;;;;;;5.90;1.92;;;18.50;1.00;;;;;;10011498;29;20219;-76
2023/08/03 02:00:32;;;;;;;5.47;2.05;;;18.50;1.00;;;;;;9986097;29;20230;-76
2023/08/03 02:05:53;;;;;;;5.82;2.55;;;18.40;99.90;;;;;;9996331;29;20262;-78
2023/08/03 02:11:14;;;;;;;3.88;2.38;;;18.30;99.90;;;;;;9972049;29;20276;-79
2023/08/03 02:16:35;;;;;;;2.28;1.90;;;18.30;1.00;;;;;;9975285;29;20220;-76
2023/08/03 02:21:56;;;;;;;5.93;2.15;;;18.20;1.00;;;;;;10001389;29;20219;-78
2023/08/03 02:27:17;;;;;;;5.32;2.08;;;18.20;1.00;;;;;;10033409;29;20231;-77
2023/08/03 02:32:38;;;;;;;2.50;2.17;;;18.30;1.00;;;;;;10045848;29;20210;-79
2023/08/03 02:38:01;;;;;;;5.60;2.10;;;18.30;1.00;;;;;;10014877;29;20524;-77
2023/08/03 02:43:22;;;;;;;5.00;2.03;;;18.40;1.00;;;;;;10043848;29;20225;-78
2023/08/03 02:48:43;;;;;;;3.97;1.90;;;18.50;1.00;;;;;;9994507;29;20218;-77
2023/08/03 02:54:05;;;;;;;2.33;1.45;;;18.60;1.00;;;;;;10018546;29;20211;-77
2023/08/03 02:59:31;;;;;;;2.25;1.48;;;18.60;1.00;;;;;;9978787;29;20202;-77
2023/08/03 03:04:52;;;;;;;2.22;1.58;;;18.60;1.00;;;;;;10020165;29;20251;-77
2023/08/03 03:10:14;;;;;;;7.78;2.58;;;18.70;1.00;;;;;;9972599;29;20207;-76
2023/08/03 03:15:36;;;;;;;6.20;2.75;;;18.60;99.90;;;;;;9970112;29;20225;-76
2023/08/03 03:20:58;;;;;;;6.13;2.50;;;17.90;1.00;;;;;;9974171;29;20527;-76
2023/08/03 03:26:19;;;;;;;3.20;2.28;;;17.70;28.60;;;;;;9994611;29;20255;-76
2023/08/03 03:31:40;;;;;;;4.78;1.95;;;17.30;99.90;;;;;;10044049;29;20206;-76
2023/08/03 03:37:01;;;;;;;4.72;2.80;;;17.20;99.90;;;;;;9993506;29;20294;-77
2023/08/03 03:42:23;;;;;;;5.57;2.40;;;17.20;99.90;;;;;;9980853;29;20284;-76
2023/08/03 03:47:44;;;;;;;7.22;3.47;;;17.20;99.90;;;;;;10010855;29;20233;-76
2023/08/03 03:53:05;;;;;;;4.70;2.63;;;17.20;99.90;;;;;;10023840;29;20209;-77
2023/08/03 03:58:30;;;;;;;2.80;2.10;;;17.30;99.90;;;;;;9966470;29;20217;-76
2023/08/03 04:03:52;;;;;;;3.22;2.30;;;17.30;99.90;;;;;;10038756;29;20544;-77
2023/08/03 04:09:13;;;;;;;4.53;2.67;;;17.40;99.90;;;;;;9967059;29;20199;-76
2023/08/03 04:14:34;;;;;;;2.30;2.00;;;17.50;99.90;;;;;;9960333;29;20261;-77
2023/08/03 04:19:55;;;;;;;2.42;2.22;;;17.60;93.20;;;;;;9971743;29;20214;-76
2023/08/03 04:25:17;;;;;;;4.57;2.50;;;17.60;69.70;;;;;;10011639;29;20241;-79
2023/08/03 04:30:43;;;;;;;3.92;2.40;;;17.60;46.80;;;;;;10041980;29;20277;-77
2023/08/03 04:36:06;;;;;;;5.25;2.38;;;17.60;28.40;;;;;;10035166;29;20248;-78
2023/08/03 04:41:31;;;;;;;5.35;4.20;;;17.50;36.70;;;;;;10041623;29;20204;-77
2023/08/03 04:46:53;;;;;;;5.13;4.63;;;17.50;74.00;;;;;;10012665;29;20214;-78
2023/08/03 04:52:16;;;;;;;5.03;3.40;;;17.60;93.50;;;;;;9986920;29;20239;-77
2023/08/03 04:57:37;;;;;;;3.67;2.67;;;17.70;50.10;;;;;;9995889;29;20231;-77
2023/08/03 05:03:00;;;;;;;3.78;2.70;;;17.70;58.70;;;;;;10021225;29;20302;-78
2023/08/03 05:08:23;;;;;;;3.00;2.35;;;17.60;68.70;;;;;;9968032;29;20206;-76
2023/08/03 05:13:45;;;;;;;2.28;1.85;;;17.60;52.70;;;;;;9965210;29;20286;-76
2023/08/03 05:19:06;;;;;;;5.72;3.13;;;17.70;89.90;;;;;;9952116;29;20366;-76
2023/08/03 05:24:28;;;;;;;2.47;2.28;;;17.70;99.90;;;;;;9975716;29;20238;-78
2023/08/03 05:29:49;;;;;;;4.35;3.05;;;17.90;89.40;;;;;;10041043;29;20210;-75
2023/08/03 05:35:12;;;;;;;8.25;5.18;;;18.00;90.60;;;;;;10027385;29;20322;-76
2023/08/03 05:40:33;;;;;;;8.02;4.18;;;18.20;37.90;;;;;;9965409;29;20196;-77
2023/08/03 05:46:01;;;;;;;5.53;3.55;;;18.30;5.90;;;;;;9987803;29;20238;-76
2023/08/03 05:51:27;;;;;;;5.03;3.33;;;18.30;1.00;;;;;;9980723;29;20386;-76
2023/08/03 05:56:49;;;;;;;6.57;4.32;;;18.20;1.00;;;;;;10011764;29;20214;-76
2023/08/03 06:02:29;;;;;;;5.65;2.42;;;18.10;1.00;;;;;;10007992;29;20229;-78
2023/08/03 06:07:50;;;;;;;2.70;2.05;;;18.20;1.00;;;;;;10004888;29;20266;-76
2023/08/03 06:13:14;;;;;;;4.30;2.45;;;18.20;1.00;;;;;;10009648;29;20260;-76
2023/08/03 06:18:45;;;;;;;2.47;2.28;;;18.30;1.00;;;;;;9979976;29;20389;-76
2023/08/03 06:24:06;;;;;;;2.42;1.85;;;18.30;1.00;;;;;;9989159;29;20255;-76
2023/08/03 06:29:27;;;;;;;2.78;2.33;;;18.40;1.00;;;;;;10040041;29;20206;-76
2023/08/03 06:34:48;;;;;;;2.25;1.98;;;18.50;1.00;;;;;;10041774;29;20236;-77
2023/08/03 06:40:10;;;;;;;4.28;2.28;;;18.50;1.00;;;;;;10045611;29;20191;-77
2023/08/03 06:45:33;;;;;;;2.95;1.92;;;18.70;1.00;;;;;;10040731;29;20235;-75
2023/08/03 06:50:54;;;;;;;3.95;2.70;;;19.10;1.00;;;;;;10011504;29;20234;-77
2023/08/03 06:56:17;;;;;;;5.85;2.45;;;19.20;99.90;;;;;;10005869;29;20257;-76
2023/08/03 07:01:38;;;;;;;3.25;2.00;;;19.30;12.90;;;;;;10009679;29;20373;-78
2023/08/03 07:06:59;;;;;;;3.72;2.00;;;19.40;1.00;;;;;;10013486;29;20219;-78
2023/08/03 07:12:20;;;;;;;3.25;1.77;;;19.30;99.90;;;;;;9973082;29;20208;-76
2023/08/03 07:17:41;;;;;;;3.65;2.13;;;19.30;99.90;;;;;;9972592;29;20212;-77
2023/08/03 07:23:05;;;;;;;4.95;4.32;;;19.30;99.90;;;;;;9970688;29;20591;-77
2023/08/03 07:28:27;;;;;;;2.47;1.75;;;19.40;99.90;;;;;;10005168;29;20310;-77
2023/08/03 07:33:48;;;;;;;2.10;1.50;;;19.50;1.00;;;;;;10035847;29;20211;-78
2023/08/03 07:39:09;;;;;;;1.77;1.42;;;20.40;1.00;;;;;;9998410;29;20471;-75
2023/08/03 07:44:30;;;;;;;2.17;1.52;;;21.50;1.00;;;;;;9999107;29;20232;-76
2023/08/03 07:49:57;;;;;;;2.00;1.58;;;21.90;1.00;;;;;;9976052;29;20205;-76
2023/08/03 07:55:19;;;;;;;3.90;1.45;;;21.20;99.90;;;;;;9992622;29;20236;-75
2023/08/03 08:00:39;;;;;;;2.65;1.50;;;20.60;1.00;;;;;;10015696;29;20206;-78
2023/08/03 08:06:15;;;;;;;3.45;2.20;;;21.00;1.00;;;;;;10034057;29;20231;-76
2023/08/03 08:11:36;;;;;;;4.57;1.05;;;22.50;23.00;;;;;;10039514;29;20509;-79
2023/08/03 08:16:58;;;;;;;1.75;1.13;;;22.50;1.00;;;;;;10043367;29;20236;-77
2023/08/03 08:22:27;;;;;;;1.92;1.13;;;22.00;1.00;;;;;;10004116;29;20557;-77
2023/08/03 08:27:48;;;;;;;6.00;1.65;;;21.40;1.00;;;;;;10013745;29;20478;-78
2023/08/03 08:33:09;;;;;;;2.63;1.30;;;21.00;1.00;;;;;;9978619;29;20207;-78
2023/08/03 08:38:31;;;;;;;3.88;1.48;;;20.40;1.00;;;;;;10020358;29;20251;-77
2023/08/03 08:43:52;;;;;;;2.75;1.35;;;20.30;99.90;;;;;;9977210;29;20273;-78
2023/08/03 08:49:13;;;;;;;4.63;1.42;;;21.10;31.70;;;;;;9969278;29;20215;-76
2023/08/03 08:54:37;;;;;;;5.07;1.05;;;22.30;10.80;;;;;;9979245;29;20220;-78
2023/08/03 09:00:05;;;;;;;3.65;1.30;;;23.10;1.00;;;;;;9995027;29;20328;-83
2023/08/03 09:05:27;;;;;;;4.10;1.45;;;24.10;99.90;;;;;;9982428;29;20341;-77
2023/08/03 09:10:53;;;;;;;2.92;1.30;;;25.00;22.80;;;;;;9967991;29;20435;-77
2023/08/03 09:16:26;;;;;;;2.28;1.15;;;25.10;1.00;;;;;;10036931;29;20199;-86
2023/08/03 09:21:58;;;;;;;4.35;1.08;;;24.90;1.00;;;;;;9998364;29;20235;-80
2023/08/03 09:27:22;;;;;;;3.00;1.58;;;23.90;1.00;;;;;;9996017;29;20287;-81
2023/08/03 09:33:14;;;;;;;1.98;1.15;;;24.20;1.00;;;;;;10025725;29;20279;-81
2023/08/03 09:38:38;;;;;;;2.92;1.40;;;24.90;1.00;;;;;;9965599;29;20293;-79
2023/08/03 09:44:00;;;;;;;3.42;1.63;;;24.20;1.00;;;;;;9972186;29;20530;-77
2023/08/03 09:49:39;;;;;;;12.45;3.15;;;23.60;1.00;;;;;;9974836;29;20207;-80
2023/08/03 09:55:13;;;;;;;4.13;2.45;;;23.50;1.00;;;;;;9979224;29;20207;-80
2023/08/03 10:00:34;;;;;;;3.35;1.67;;;23.80;1.00;;;;;;10001980;29;20242;-85
2023/08/03 10:06:17;;;;;;;2.25;1.42;;;25.10;1.00;;;;;;10034708;29;20454;-80
2023/08/03 10:11:43;;;;;;;2.58;1.50;;;25.90;1.00;;;;;;10014702;29;20214;-79
2023/08/03 10:17:08;;;;;;;3.78;1.60;;;26.10;1.00;;;;;;10032046;29;20270;-79
2023/08/03 10:22:29;;;;;;;4.30;1.48;;;25.40;1.00;;;;;;10021272;29;20222;-83
2023/08/03 10:28:10;;;;;;;5.13;2.00;;;25.10;1.00;;;;;;9980674;29;20256;-80
2023/08/03 10:33:46;;;;;;;8.82;1.50;;;24.90;1.00;;;;;;10022093;29;20219;-83
2023/08/03 10:39:14;;;;;;;2.95;1.38;;;24.70;1.00;;;;;;9993308;29;20215;-80
2023/08/03 10:44:35;;;;;;;5.10;2.10;;;24.40;1.00;;;;;;9966892;29;20232;-84
2023/08/03 10:49:57;;;;;;;5.97;1.98;;;24.60;1.00;;;;;;9956295;29;20299;-83
2023/08/03 10:55:26;;;;;;;6.30;1.65;;;25.30;1.00;;;;;;9974080;29;20283;-79
2023/08/03 11:00:48;;;;;;;7.35;2.22;;;26.00;1.00;;;;;;10020694;29;20518;-82
2023/08/03 11:06:10;;;;;;;6.00;2.55;;;25.50;1.00;;;;;;10041071;29;20227;-83
2023/08/03 11:11:34;;;;;;;9.55;2.75;;;24.90;1.00;;;;;;10033512;29;20257;-82
2023/08/03 11:16:55;;;;;;;6.65;1.90;;;25.10;1.00;;;;;;10026617;29;20275;-79
2023/08/03 11:22:16;;;;;;;4.45;1.75;;;25.40;1.00;;;;;;10028684;29;20210;-77
2023/08/03 11:27:41;;;;;;;13.90;9.20;;;25.00;1.00;;;;;;10002802;29;20525;-81
2023/08/03 11:33:02;;;;;;;5.68;2.20;;;24.70;1.00;;;;;;10002102;29;20227;-80
2023/08/03 11:38:23;;;;;;;4.07;1.65;;;25.40;1.00;;;;;;10009486;29;20435;-76
2023/08/03 11:43:47;;;;;;;6.75;1.70;;;25.30;1.00;;;;;;9977659;29;20293;-82
2023/08/03 11:49:12;;;;;;;7.85;2.55;;;24.70;1.00;;;;;;9967143;29;20240;-80
2023/08/03 11:54:34;;;;;;;8.98;1.50;;;23.70;1.00;;;;;;9952325;29;20219;-77
2023/08/03 11:59:55;;;;;;;4.18;1.88;;;23.30;1.00;;;;;;9967578;29;20216;-78
2023/08/03 12:05:17;;;;;;;5.70;2.38;;;23.80;1.00;;;;;;10017922;29;20282;-84
2023/08/03 12:10:39;;;;;;;4.30;1.50;;;24.40;1.00;;;;;;10027278;29;20199;-85
2023/08/03 12:16:00;;;;;;;5.10;1.63;;;24.90;99.90;;;;;;10036740;29;20214;-80
2023/08/03 12:21:21;;;;;;;2.88;1.50;;;25.00;1.00;;;;;;10011334;29;20215;-80
2023/08/03 12:26:43;;;;;;;5.38;1.60;;;24.80;1.00;;;;;;9976306;29;20482;-81
2023/08/03 12:32:05;;;;;;;9.32;1.92;;;24.30;1.00;;;;;;9997976;29;20489;-81
2023/08/03 12:37:26;;;;;;;3.53;1.30;;;24.10;1.00;;;;;;9998977;29;20243;-78
2023/08/03 12:42:47;;;;;;;5.65;1.20;;;24.00;1.00;;;;;;9996881;29;20223;-75
2023/08/03 12:48:09;;;;;;;3.85;1.30;;;23.80;1.00;;;;;;9995476;29;20421;-83
2023/08/03 12:53:34;;;;;;;3.42;1.13;;;23.70;1.00;;;;;;9960800;29;20284;-78
2023/08/03 12:58:56;;;;;;;4.50;1.30;;;23.10;1.00;;;;;;9964662;29;20292;-82
2023/08/03 13:04:17;;;;;;;4.10;1.05;;;22.80;99.90;;;;;;9957983;29;20240;-81
2023/08/03 13:09:39;;;;;;;4.63;1.00;;;23.10;99.90;;;;;;9999946;29;20215;-82
2023/08/03 13:15:00;;;;;;;2.78;1.05;;;22.90;99.90;;;;;;10039821;29;20252;-79
2023/08/03 13:20:21;;;;;;;3.97;1.45;;;22.90;1.00;;;;;;10022894;29;20215;-76
2023/08/03 13:25:45;;;;;;;3.47;1.55;;;22.90;1.00;;;;;;10008309;29;20295;-77
2023/08/03 13:31:07;;;;;;;2.83;1.27;;;22.80;1.00;;;;;;9970940;29;20197;-77
2023/08/03 13:36:28;;;;;;;3.85;1.23;;;22.80;1.00;;;;;;9962765;29;20264;-77
2023/08/03 13:41:49;;;;;;;7.47;4.32;;;23.50;61.90;;;;;;9966828;29;20231;-78
2023/08/03 13:47:11;;;;;;;6.78;1.35;;;24.30;1.00;;;;;;9984307;29;20239;-81
2023/08/03 13:52:32;;;;;;;4.43;1.20;;;24.50;1.00;;;;;;9997514;29;20385;-77
2023/08/03 13:57:53;;;;;;;2.70;0.70;;;24.60;1.00;;;;;;9992469;29;20283;-81
2023/08/03 14:03:17;;;;;;;2.50;1.00;;;24.80;1.00;;;;;;9997545;29;20251;-77
2023/08/03 14:08:53;;;;;;;2.80;1.50;;;24.80;1.00;;;;;;10033801;29;20207;-79
2023/08/03 14:14:18;;;;;;;4.75;1.15;;;24.60;1.00;;;;;;10007813;29;20228;-81
2023/08/03 14:19:42;;;;;;;4.25;1.38;;;24.50;1.00;;;;;;10008831;29;20231;-79
2023/08/03 14:25:03;;;;;;;1.33;0.57;;;24.40;1.00;;;;;;10007763;29;20243;-76
2023/08/03 14:30:27;;;;;;;3.33;1.15;;;24.10;1.00;;;;;;9994093;29;20584;-76
2023/08/03 14:35:49;;;;;;;1.95;1.20;;;23.60;1.00;;;;;;9974723;29;20247;-80
2023/08/03 14:41:13;;;;;;;3.20;1.80;;;23.30;1.00;;;;;;10022602;29;20286;-76
2023/08/03 14:46:34;;;;;;;3.72;1.20;;;23.10;1.00;;;;;;9983871;29;20239;-76
2023/08/03 14:51:56;;;;;;;6.88;1.70;;;23.30;1.00;;;;;;10016038;29;20204;-79
2023/08/03 14:57:21;;;;;;;4.35;1.25;;;23.30;1.00;;;;;;9994724;29;20215;-73
2023/08/03 15:02:44;;;;;;;3.30;0.80;;;23.10;1.00;;;;;;9975853;29;20196;-77
2023/08/03 15:08:05;;;;;;;4.28;1.40;;;23.00;1.00;;;;;;9991665;29;20463;-77
2023/08/03 15:13:26;;;;;;;1.95;1.08;;;23.00;1.00;;;;;;9979658;29;20200;-79
2023/08/03 15:18:47;;;;;;;0.85;0.82;;;22.80;45.90;;;;;;10013985;29;20237;-77
2023/08/03 15:24:13;;;;;;;1.85;0.90;;;22.70;99.90;;;;;;10041478;29;20557;-77
2023/08/03 15:29:34;;;;;;;2.83;1.20;;;22.40;1.00;;;;;;10003687;29;20212;-77
2023/08/03 15:35:00;;;;;;;3.63;0.82;;;22.30;1.00;;;;;;10005784;29;20750;-77
2023/08/03 15:40:22;;;;;;;1.25;0.60;;;22.20;1.00;;;;;;10006413;29;20249;-79
2023/08/03 15:45:45;;;;;;;3.10;0.98;;;22.00;1.00;;;;;;9976866;29;20260;-77
2023/08/03 15:51:09;;;;;;;3.17;1.00;;;21.80;1.00;;;;;;9967243;29;20230;-78
2023/08/03 15:56:33;;;;;;;2.50;1.10;;;21.70;1.00;;;;;;9990080;29;20466;-76
2023/08/03 16:01:54;;;;;;;1.55;0.77;;;21.70;1.00;;;;;;10003742;29;20407;-77
2023/08/03 16:07:15;;;;;;;6.72;1.80;;;21.40;1.00;;;;;;10000152;29;20238;-77
2023/08/03 16:12:36;;;;;;;2.10;1.00;;;;;;;;;;10007698;29;20211;-76
2023/08/03 16:17:58;;;;;;;1.70;0.82;;;21.00;1.00;;;;;;10043383;29;20195;-77
2023/08/03 16:23:19;;;;;;;3.72;1.02;;;20.60;44.60;;;;;;10037192;29;20211;-78
2023/08/03 16:28:40;;;;;;;1.50;0.93;;;;;;;;;;10018633;29;20578;-78
2023/08/03 16:34:02;;;;;;;1.63;0.68;;;20.30;1.00;;;;;;9988231;29;20208;-78
2023/08/03 16:39:26;;;;;;;1.23;0.68;;;20.20;1.00;;;;;;9966972;29;20204;-78
2023/08/03 16:44:47;;;;;;;3.97;1.50;;;20.20;99.90;;;;;;9969898;29;20299;-78
2023/08/03 16:50:09;;;;;;;3.80;1.70;;;20.30;1.00;;;;;;9953063;29;20208;-77
2023/08/03 16:55:30;;;;;;;1.42;0.93;;;20.20;1.00;;;;;;9980155;29;20208;-78
2023/08/03 17:00:52;;;;;;;4.32;1.52;;;20.20;1.00;;;;;;10004653;29;20436;-77
2023/08/03 17:06:13;;;;;;;4.80;1.83;;;20.20;99.90;;;;;;9964063;29;20255;-77
2023/08/03 17:11:34;;;;;;;3.40;1.67;;;20.20;1.00;;;;;;9966392;29;20221;-77
2023/08/03 17:16:55;;;;;;;6.97;2.60;;;20.20;99.90;;;;;;10037974;29;20211;-77
2023/08/03 17:22:18;;;;;;;3.05;1.73;;;20.10;99.90;;;;;;10038199;29;20240;-73
2023/08/03 17:27:39;;;;;;;2.83;1.50;;;20.10;1.00;;;;;;10043825;29;20258;-77
2023/08/03 17:33:00;;;;;;;1.63;1.13;;;20.10;1.00;;;;;;9995250;29;20200;-78
2023/08/03 17:38:21;;;;;;;2.65;1.33;;;20.10;1.00;;;;;;9967030;29;20272;-77
2023/08/03 17:43:42;;;;;;;1.48;0.85;;;20.00;1.00;;;;;;9980036;29;20224;-76
2023/08/03 17:49:03;;;;;;;2.58;1.23;;;20.00;1.00;;;;;;9979605;29;20393;-77
2023/08/03 17:54:24;;;;;;;0.82;0.80;;;19.90;1.00;;;;;;9991285;29;20214;-76
2023/08/03 17:59:47;;;;;;;3.20;1.08;;;19.90;1.00;;;;;;10011537;29;20286;-77
2023/08/03 18:05:09;;;;;;;4.68;1.00;;;19.90;5.70;;;;;;10002569;29;20250;-78
2023/08/03 18:10:30;;;;;;;3.40;0.90;;;19.80;1.00;;;;;;10014923;29;20226;-78
2023/08/03 18:15:51;;;;;;;3.20;1.00;;;19.70;23.10;;;;;;10023109;29;20238;-73
2023/08/03 18:21:19;;;;;;;1.63;0.90;;;19.60;99.90;;;;;;9978553;29;20206;-77
2023/08/03 18:26:41;;;;;;;3.10;0.80;;;19.60;1.00;;;;;;9985548;29;20232;-78
2023/08/03 18:32:02;;;;;;;3.15;1.00;;;19.60;13.00;;;;;;9991471;29;20212;-78
2023/08/03 18:37:23;;;;;;;3.08;1.08;;;19.50;99.90;;;;;;9976565;29;20244;-72
2023/08/03 18:42:45;;;;;;;1.95;0.98;;;19.40;99.90;;;;;;9980179;29;20231;-77
2023/08/03 18:48:06;;;;;;;2.65;0.90;;;19.30;99.90;;;;;;9976766;29;20470;-78
2023/08/03 18:53:28;;;;;;;2.95;0.90;;;19.30;99.90;;;;;;9977316;29;20253;-77
2023/08/03 18:58:59;;;;;;;2.40;1.13;;;19.30;1.00;;;;;;9991664;29;20256;-78
2023/08/03 19:04:20;;;;;;;4.82;1.30;;;19.20;36.40;;;;;;9969890;29;20233;-77
2023/08/03 19:09:41;;;;;;;4.80;1.00;;;;;;;;;;9995361;29;20203;-75
2023/08/03 19:15:03;;;;;;;1.63;0.82;;;18.90;1.00;;;;;;10040040;29;20282;-77
2023/08/03 19:20:24;;;;;;;0.60;0.55;;;18.80;99.90;;;;;;10033127;29;20520;-78
2023/08/03 19:25:46;;;;;;;1.30;1.20;;;18.80;1.00;;;;;;10035057;29;20414;-76
2023/08/03 19:31:07;;;;;;;1.30;1.20;;;18.70;1.00;;;;;;9996409;29;20228;-79
2023/08/03 19:36:28;;;;;;;4.75;2.63;;;18.60;1.00;;;;;;9955725;29;20323;-76
2023/08/03 19:41:52;;;;;;;8.02;3.85;;;18.50;99.90;;;;;;9979732;29;20231;-76
2023/08/03 19:47:13;;;;;;;4.45;2.97;;;18.50;99.90;;;;;;9971698;29;20281;-77
2023/08/03 19:52:35;;;;;;;4.85;2.65;;;18.40;1.00;;;;;;9971842;29;20222;-76
2023/08/03 19:58:02;;;;;;;5.47;2.85;;;18.20;99.90;;;;;;9981721;29;20211;-77
2023/08/03 20:03:27;;;;;;;8.38;5.18;;;;;;;;;;9976425;29;20236;-76
2023/08/03 20:08:48;;;;;;;1.52;1.20;;;18.00;97.30;;;;;;9981053;29;20257;-78
2023/08/03 20:14:09;;;;;;;3.95;2.40;;;17.90;1.00;;;;;;10017397;29;20214;-77
2023/08/03 20:19:31;;;;;;;2.78;2.13;;;17.90;1.00;;;;;;10042014;29;20207;-76
2023/08/03 20:24:59;;;;;;;2.67;1.55;;;17.80;99.90;;;;;;10037577;29;20280;-77
2023/08/03 20:30:21;;;;;;;2.92;1.23;;;17.70;1.00;;;;;;10033552;29;20200;-78
2023/08/03 20:35:53;;;;;;;2.13;1.17;;;17.70;1.00;;;;;;10003954;29;20284;-77
2023/08/03 20:41:17;;;;;;;2.83;1.52;;;17.60;1.00;;;;;;9978615;29;20211;-78
2023/08/03 20:46:41;;;;;;;2.38;1.52;;;17.60;1.00;;;;;;9969972;29;20245;-76
2023/08/03 20:52:05;;;;;;;2.55;1.40;;;17.60;45.90;;;;;;9966997;29;20226;-78
2023/08/03 20:57:26;;;;;;;1.73;1.20;;;17.50;99.90;;;;;;9975350;29;20207;-76
2023/08/03 21:02:51;;;;;;;2.83;1.02;;;18.10;99.90;;;;;;10002122;29;20223;-77
2023/08/03 21:08:15;;;;;;;1.38;0.82;;;17.50;1.00;;;;;;10004402;29;20259;-77
2023/08/03 21:13:36;;;;;;;2.80;1.00;;;17.40;1.00;;;;;;9976112;29;20204;-78
2023/08/03 21:18:58;;;;;;;3.47;1.13;;;17.50;1.00;;;;;;10010810;29;20237;-76
2023/08/03 21:24:21;;;;;;;1.70;1.20;;;17.50;1.00;;;;;;10040749;29;20557;-74
2023/08/03 21:29:43;;;;;;;3.85;1.15;;;17.50;99.90;;;;;;10031865;29;20289;-74
2023/08/03 21:35:05;;;;;;;3.35;1.10;;;17.50;99.90;;;;;;10003367;29;20276;-75
2023/08/03 21:40:25;;;;;;;8.27;1.60;;;17.50;1.00;;;;;;10003368;29;20206;-74
2023/08/03 21:45:53;;;;;;;4.90;1.38;;;17.50;1.00;;;;;;10000771;29;20238;-75
2023/08/03 21:51:14;;;;;;;3.00;1.20;;;17.50;1.00;;;;;;10002327;29;20194;-75
2023/08/03 21:56:35;;;;;;;3.67;1.52;;;17.50;99.90;;;;;;9986045;29;20501;-73
2023/08/03 22:01:57;;;;;;;2.65;1.27;;;17.50;1.00;;;;;;9984859;29;20202;-74
2023/08/03 22:07:18;;;;;;;3.88;1.55;;;17.50;99.90;;;;;;9988495;29;20434;-74
2023/08/03 22:12:40;;;;;;;4.97;1.48;;;17.50;1.00;;;;;;10009911;29;20216;-75
2023/08/03 22:18:01;;;;;;;2.80;1.30;;;17.40;1.00;;;;;;10020624;29;20200;-75
2023/08/03 22:23:22;;;;;;;3.75;0.90;;;17.40;1.00;;;;;;10040224;29;20196;-74
2023/08/03 22:28:44;;;;;;;4.18;1.20;;;17.50;99.90;;;;;;9983096;29;20544;-73
2023/08/03 22:34:05;;;;;;;1.67;0.88;;;17.40;1.00;;;;;;9995189;29;20227;-77
2023/08/03 22:39:26;;;;;;;3.45;1.65;;;17.40;1.00;;;;;;10007555;29;20215;-74
2023/08/03 22:44:47;;;;;;;1.80;1.13;;;17.40;1.00;;;;;;9972323;29;20318;-75
2023/08/03 22:50:09;;;;;;;6.97;2.40;;;17.40;1.00;;;;;;9970929;29;20215;-74
2023/08/03 22:55:30;;;;;;;5.70;1.25;;;17.40;1.00;;;;;;9973824;29;20461;-73
2023/08/03 23:00:50;;;;;;;1.75;0.70;;;17.50;1.00;;;;;;9992382;29;20539;-74
2023/08/03 23:06:13;;;;;;;3.17;1.05;;;17.50;99.90;;;;;;10007485;29;20467;-76
2023/08/03 23:11:34;;;;;;;1.95;0.70;;;17.40;1.00;;;;;;10026630;29;20213;-74
2023/08/03 23:16:55;;;;;;;1.75;0.80;;;17.40;99.90;;;;;;10045393;29;20368;-73
2023/08/03 23:22:16;;;;;;;3.08;1.05;;;17.40;99.90;;;;;;10044674;29;20230;-77
2023/08/03 23:27:37;;;;;;;3.22;1.90;;;17.40;41.40;;;;;;10041554;29;20305;-77
2023/08/03 23:32:58;;;;;;;2.05;1.00;;;17.30;99.90;;;;;;9988413;29;20282;-76
2023/08/03 23:38:19;;;;;;;2.45;1.08;;;17.30;1.00;;;;;;10000070;29;20241;-77
2023/08/03 23:43:41;;;;;;;2.90;0.95;;;17.20;1.00;;;;;;9958625;29;20218;-77
2023/08/03 23:49:02;;;;;;;2.95;1.02;;;17.20;1.00;;;;;;9968005;29;20239;-77
2023/08/03 23:54:23;;;;;;;2.47;0.80;;;17.20;66.10;;;;;;9956726;29;20501;-76
2023/08/03 23:59:45;;;;;;;1.27;0.57;;;17.10;27.40;;;;;;9972443;29;20231;-77
